sensor_id;sensor_type;location;lat;lon;timestamp;pressure;altitude;pressure_sealevel;temperature;humidity
58662;BME280;44432;49.786;22.760;2022-07-09T00:02:23;99774.66;;;16.61;74.33
58662;BME280;44432;49.786;22.760;2022-07-09T00:04:54;99771.13;;;16.60;74.40
58662;BME280;44432;49.786;22.760;2022-07-09T00:07:24;99771.08;;;16.57;74.24
58662;BME280;44432;49.786;22.760;2022-07-09T00:09:55;99769.71;;;16.55;74.22
58662;BME280;44432;49.786;22.760;2022-07-09T00:12:26;99771.27;;;16.56;74.30
58662;BME280;44432;49.786;22.760;2022-07-09T00:14:56;99773.01;;;16.55;74.32
58662;BME280;44432;49.786;22.760;2022-07-09T00:17:27;99774.63;;;16.53;74.26
58662;BME280;44432;49.786;22.760;2022-07-09T00:19:59;99773.56;;;16.50;74.33
58662;BME280;44432;49.786;22.760;2022-07-09T00:22:31;99773.17;;;16.47;74.41
58662;BME280;44432;49.786;22.760;2022-07-09T00:25:02;99768.50;;;16.45;74.68
58662;BME280;44432;49.786;22.760;2022-07-09T00:27:33;99772.11;;;16.49;74.75
58662;BME280;44432;49.786;22.760;2022-07-09T00:30:05;99770.73;;;16.51;74.77
58662;BME280;44432;49.786;22.760;2022-07-09T00:32:35;99770.45;;;16.52;74.74
58662;BME280;44432;49.786;22.760;2022-07-09T00:35:07;99765.55;;;16.50;74.71
58662;BME280;44432;49.786;22.760;2022-07-09T00:37:38;99764.66;;;16.50;74.79
58662;BME280;44432;49.786;22.760;2022-07-09T00:40:10;99767.98;;;16.49;74.71
58662;BME280;44432;49.786;22.760;2022-07-09T00:42:41;99764.94;;;16.45;74.76
58662;BME280;44432;49.786;22.760;2022-07-09T00:45:11;99763.80;;;16.47;74.78
58662;BME280;44432;49.786;22.760;2022-07-09T00:47:42;99765.41;;;16.48;74.72
58662;BME280;44432;49.786;22.760;2022-07-09T00:50:13;99761.77;;;16.47;74.81
58662;BME280;44432;49.786;22.760;2022-07-09T00:52:45;99761.48;;;16.46;74.95
58662;BME280;44432;49.786;22.760;2022-07-09T00:55:15;99763.39;;;16.43;74.84
58662;BME280;44432;49.786;22.760;2022-07-09T00:57:46;99762.50;;;16.40;74.71
58662;BME280;44432;49.786;22.760;2022-07-09T01:00:18;99765.73;;;16.39;74.80
58662;BME280;44432;49.786;22.760;2022-07-09T01:02:50;99760.54;;;16.38;74.86
58662;BME280;44432;49.786;22.760;2022-07-09T01:05:21;99761.78;;;16.39;74.85
58662;BME280;44432;49.786;22.760;2022-07-09T01:07:51;99759.52;;;16.40;75.02
58662;BME280;44432;49.786;22.760;2022-07-09T01:10:22;99755.38;;;16.41;75.05
58662;BME280;44432;49.786;22.760;2022-07-09T01:12:53;99755.54;;;16.42;75.07
58662;BME280;44432;49.786;22.760;2022-07-09T01:15:24;99754.83;;;16.40;75.03
58662;BME280;44432;49.786;22.760;2022-07-09T01:17:55;99753.16;;;16.40;74.93
58662;BME280;44432;49.786;22.760;2022-07-09T01:20:28;99753.59;;;16.37;74.93
58662;BME280;44432;49.786;22.760;2022-07-09T01:22:59;99750.81;;;16.37;75.06
58662;BME280;44432;49.786;22.760;2022-07-09T01:25:34;99749.40;;;16.35;75.05
58662;BME280;44432;49.786;22.760;2022-07-09T01:28:07;99742.63;;;16.34;75.11
58662;BME280;44432;49.786;22.760;2022-07-09T01:30:40;99738.02;;;16.33;75.11
58662;BME280;44432;49.786;22.760;2022-07-09T01:33:10;99738.30;;;16.31;75.25
58662;BME280;44432;49.786;22.760;2022-07-09T01:35:41;99739.67;;;16.30;75.50
58662;BME280;44432;49.786;22.760;2022-07-09T01:38:12;99739.55;;;16.32;75.49
58662;BME280;44432;49.786;22.760;2022-07-09T01:40:43;99736.46;;;16.33;75.42
58662;BME280;44432;49.786;22.760;2022-07-09T01:43:14;99737.55;;;16.34;75.53
58662;BME280;44432;49.786;22.760;2022-07-09T01:45:44;99737.90;;;16.33;75.51
58662;BME280;44432;49.786;22.760;2022-07-09T01:48:17;99739.55;;;16.32;75.56
58662;BME280;44432;49.786;22.760;2022-07-09T01:50:47;99739.88;;;16.33;75.52
58662;BME280;44432;49.786;22.760;2022-07-09T01:53:18;99735.05;;;16.31;75.30
58662;BME280;44432;49.786;22.760;2022-07-09T01:55:48;99731.20;;;16.30;75.28
58662;BME280;44432;49.786;22.760;2022-07-09T01:58:19;99734.31;;;16.32;75.40
58662;BME280;44432;49.786;22.760;2022-07-09T02:00:49;99729.27;;;16.32;75.31
58662;BME280;44432;49.786;22.760;2022-07-09T02:03:20;99731.20;;;16.31;75.35
58662;BME280;44432;49.786;22.760;2022-07-09T02:05:52;99731.66;;;16.29;75.36
58662;BME280;44432;49.786;22.760;2022-07-09T02:08:22;99728.13;;;16.28;75.41
58662;BME280;44432;49.786;22.760;2022-07-09T02:10:53;99721.66;;;16.25;75.28
58662;BME280;44432;49.786;22.760;2022-07-09T02:13:24;99724.02;;;16.23;75.27
58662;BME280;44432;49.786;22.760;2022-07-09T02:15:55;99727.67;;;16.19;75.22
58662;BME280;44432;49.786;22.760;2022-07-09T02:18:26;99725.60;;;16.16;75.29
58662;BME280;44432;49.786;22.760;2022-07-09T02:20:56;99722.91;;;16.15;75.45
58662;BME280;44432;49.786;22.760;2022-07-09T02:23:27;99728.31;;;16.16;75.58
58662;BME280;44432;49.786;22.760;2022-07-09T02:25:57;99728.27;;;16.16;75.58
58662;BME280;44432;49.786;22.760;2022-07-09T02:28:28;99727.36;;;16.14;75.45
58662;BME280;44432;49.786;22.760;2022-07-09T02:30:59;99729.07;;;16.11;75.34
58662;BME280;44432;49.786;22.760;2022-07-09T02:33:30;99726.88;;;16.10;75.25
58662;BME280;44432;49.786;22.760;2022-07-09T02:36:00;99733.41;;;16.09;75.15
58662;BME280;44432;49.786;22.760;2022-07-09T02:38:31;99729.56;;;16.07;75.08
58662;BME280;44432;49.786;22.760;2022-07-09T02:41:01;99725.49;;;16.06;75.09
58662;BME280;44432;49.786;22.760;2022-07-09T02:43:32;99730.98;;;16.02;74.92
58662;BME280;44432;49.786;22.760;2022-07-09T02:46:02;99730.52;;;15.98;74.82
58662;BME280;44432;49.786;22.760;2022-07-09T02:48:34;99735.30;;;15.95;74.94
58662;BME280;44432;49.786;22.760;2022-07-09T02:51:05;99736.98;;;15.93;75.04
58662;BME280;44432;49.786;22.760;2022-07-09T02:53:35;99736.84;;;15.91;74.97
58662;BME280;44432;49.786;22.760;2022-07-09T02:56:06;99739.71;;;15.91;74.95
58662;BME280;44432;49.786;22.760;2022-07-09T02:58:37;99737.48;;;15.90;74.94
58662;BME280;44432;49.786;22.760;2022-07-09T03:01:08;99738.54;;;15.89;74.86
58662;BME280;44432;49.786;22.760;2022-07-09T03:03:39;99739.46;;;15.87;75.03
58662;BME280;44432;49.786;22.760;2022-07-09T03:06:09;99742.94;;;15.88;74.94
58662;BME280;44432;49.786;22.760;2022-07-09T03:08:41;99739.21;;;15.90;74.99
58662;BME280;44432;49.786;22.760;2022-07-09T03:11:11;99742.02;;;15.92;74.89
58662;BME280;44432;49.786;22.760;2022-07-09T03:13:42;99743.58;;;15.93;74.99
58662;BME280;44432;49.786;22.760;2022-07-09T03:16:12;99743.70;;;15.94;74.89
58662;BME280;44432;49.786;22.760;2022-07-09T03:18:43;99741.86;;;15.92;74.75
58662;BME280;44432;49.786;22.760;2022-07-09T03:21:14;99741.38;;;15.90;74.65
58662;BME280;44432;49.786;22.760;2022-07-09T03:23:44;99742.20;;;15.88;74.45
58662;BME280;44432;49.786;22.760;2022-07-09T03:26:15;99747.76;;;15.86;74.51
58662;BME280;44432;49.786;22.760;2022-07-09T03:28:45;99748.48;;;15.85;74.54
58662;BME280;44432;49.786;22.760;2022-07-09T03:31:16;99746.71;;;15.85;74.60
58662;BME280;44432;49.786;22.760;2022-07-09T03:33:46;99752.48;;;15.83;74.47
58662;BME280;44432;49.786;22.760;2022-07-09T03:36:17;99753.50;;;15.84;74.59
58662;BME280;44432;49.786;22.760;2022-07-09T03:38:48;99759.34;;;15.85;74.57
58662;BME280;44432;49.786;22.760;2022-07-09T03:41:18;99754.20;;;15.84;74.51
58662;BME280;44432;49.786;22.760;2022-07-09T03:43:49;99760.92;;;15.87;74.50
58662;BME280;44432;49.786;22.760;2022-07-09T03:46:19;99760.52;;;15.90;74.41
58662;BME280;44432;49.786;22.760;2022-07-09T03:48:50;99766.23;;;15.91;74.62
58662;BME280;44432;49.786;22.760;2022-07-09T03:51:20;99764.83;;;15.93;74.50
58662;BME280;44432;49.786;22.760;2022-07-09T03:53:51;99765.31;;;15.96;74.63
58662;BME280;44432;49.786;22.760;2022-07-09T03:56:21;99761.06;;;15.97;74.41
58662;BME280;44432;49.786;22.760;2022-07-09T03:58:52;99757.33;;;15.96;74.40
58662;BME280;44432;49.786;22.760;2022-07-09T04:01:23;99766.83;;;16.00;74.37
58662;BME280;44432;49.786;22.760;2022-07-09T04:03:54;99767.48;;;16.01;74.35
58662;BME280;44432;49.786;22.760;2022-07-09T04:06:24;99765.80;;;16.01;74.31
58662;BME280;44432;49.786;22.760;2022-07-09T04:08:55;99762.03;;;16.02;74.27
58662;BME280;44432;49.786;22.760;2022-07-09T04:11:26;99762.08;;;16.02;74.26
58662;BME280;44432;49.786;22.760;2022-07-09T04:13:56;99761.79;;;16.00;73.94
58662;BME280;44432;49.786;22.760;2022-07-09T04:16:27;99759.19;;;15.98;73.91
58662;BME280;44432;49.786;22.760;2022-07-09T04:18:58;99757.55;;;15.99;74.16
58662;BME280;44432;49.786;22.760;2022-07-09T04:21:28;99758.83;;;16.02;74.21
58662;BME280;44432;49.786;22.760;2022-07-09T04:23:59;99756.50;;;16.06;74.20
58662;BME280;44432;49.786;22.760;2022-07-09T04:26:30;99758.23;;;16.07;74.13
58662;BME280;44432;49.786;22.760;2022-07-09T04:29:01;99759.52;;;16.10;74.09
58662;BME280;44432;49.786;22.760;2022-07-09T04:31:31;99765.12;;;16.13;73.89
58662;BME280;44432;49.786;22.760;2022-07-09T04:34:02;99764.83;;;16.14;73.62
58662;BME280;44432;49.786;22.760;2022-07-09T04:36:32;99768.23;;;16.14;73.66
58662;BME280;44432;49.786;22.760;2022-07-09T04:39:03;99770.02;;;16.13;73.65
58662;BME280;44432;49.786;22.760;2022-07-09T04:41:33;99773.69;;;16.18;73.95
58662;BME280;44432;49.786;22.760;2022-07-09T04:44:05;99773.81;;;16.21;73.82
58662;BME280;44432;49.786;22.760;2022-07-09T04:46:35;99775.21;;;16.25;73.61
58662;BME280;44432;49.786;22.760;2022-07-09T04:49:06;99777.08;;;16.33;73.56
58662;BME280;44432;49.786;22.760;2022-07-09T04:51:36;99776.23;;;16.46;73.57
58662;BME280;44432;49.786;22.760;2022-07-09T04:54:07;99777.03;;;16.60;73.33
58662;BME280;44432;49.786;22.760;2022-07-09T04:56:37;99779.77;;;16.69;73.03
58662;BME280;44432;49.786;22.760;2022-07-09T04:59:08;99781.11;;;16.79;72.60
58662;BME280;44432;49.786;22.760;2022-07-09T05:01:38;99780.36;;;16.88;72.50
58662;BME280;44432;49.786;22.760;2022-07-09T05:04:09;99783.77;;;16.95;71.96
58662;BME280;44432;49.786;22.760;2022-07-09T05:06:39;99780.53;;;16.95;71.66
58662;BME280;44432;49.786;22.760;2022-07-09T05:09:10;99782.23;;;16.95;71.66
58662;BME280;44432;49.786;22.760;2022-07-09T05:11:40;99779.66;;;16.97;71.48
58662;BME280;44432;49.786;22.760;2022-07-09T05:14:11;99778.69;;;16.93;71.18
58662;BME280;44432;49.786;22.760;2022-07-09T05:16:41;99774.85;;;16.91;70.91
58662;BME280;44432;49.786;22.760;2022-07-09T05:19:13;99776.11;;;16.89;71.20
58662;BME280;44432;49.786;22.760;2022-07-09T05:21:44;99777.41;;;16.93;70.90
58662;BME280;44432;49.786;22.760;2022-07-09T05:24:15;99779.58;;;16.99;71.02
58662;BME280;44432;49.786;22.760;2022-07-09T05:26:45;99783.38;;;17.03;70.92
58662;BME280;44432;49.786;22.760;2022-07-09T05:29:16;99783.48;;;17.06;70.32
58662;BME280;44432;49.786;22.760;2022-07-09T05:31:46;99783.10;;;16.95;69.90
58662;BME280;44432;49.786;22.760;2022-07-09T05:34:17;99786.03;;;16.95;69.91
58662;BME280;44432;49.786;22.760;2022-07-09T05:36:48;99786.02;;;17.04;70.06
58662;BME280;44432;49.786;22.760;2022-07-09T05:39:20;99780.06;;;17.16;70.13
58662;BME280;44432;49.786;22.760;2022-07-09T05:41:51;99777.61;;;17.40;70.31
58662;BME280;44432;49.786;22.760;2022-07-09T05:44:21;99781.16;;;17.64;70.04
58662;BME280;44432;49.786;22.760;2022-07-09T05:46:52;99781.73;;;17.80;69.19
58662;BME280;44432;49.786;22.760;2022-07-09T05:49:23;99775.54;;;17.80;68.16
58662;BME280;44432;49.786;22.760;2022-07-09T05:51:53;99775.68;;;17.82;68.16
58662;BME280;44432;49.786;22.760;2022-07-09T05:54:24;99774.62;;;17.79;67.80
58662;BME280;44432;49.786;22.760;2022-07-09T05:56:54;99774.69;;;17.79;67.73
58662;BME280;44432;49.786;22.760;2022-07-09T05:59:25;99768.83;;;17.76;67.79
58662;BME280;44432;49.786;22.760;2022-07-09T06:01:55;99768.04;;;17.86;67.92
58662;BME280;44432;49.786;22.760;2022-07-09T06:04:26;99766.20;;;17.96;67.99
58662;BME280;44432;49.786;22.760;2022-07-09T06:06:56;99767.02;;;18.02;67.64
58662;BME280;44432;49.786;22.760;2022-07-09T06:09:27;99765.55;;;18.02;67.20
58662;BME280;44432;49.786;22.760;2022-07-09T06:11:58;99766.21;;;18.02;67.10
58662;BME280;44432;49.786;22.760;2022-07-09T06:14:29;99763.20;;;17.96;66.88
58662;BME280;44432;49.786;22.760;2022-07-09T06:16:59;99763.40;;;17.87;66.48
58662;BME280;44432;49.786;22.760;2022-07-09T06:19:35;99769.76;;;17.69;66.93
58662;BME280;44432;49.786;22.760;2022-07-09T06:22:06;99768.02;;;17.60;67.20
58662;BME280;44432;49.786;22.760;2022-07-09T06:24:37;99759.43;;;17.61;67.55
58662;BME280;44432;49.786;22.760;2022-07-09T06:27:07;99751.98;;;17.70;67.55
58662;BME280;44432;49.786;22.760;2022-07-09T06:29:38;99753.11;;;17.79;67.12
58662;BME280;44432;49.786;22.760;2022-07-09T06:32:10;99747.48;;;17.75;66.76
58662;BME280;44432;49.786;22.760;2022-07-09T06:34:40;99748.45;;;17.83;66.91
58662;BME280;44432;49.786;22.760;2022-07-09T06:37:11;99747.64;;;18.00;67.00
58662;BME280;44432;49.786;22.760;2022-07-09T06:39:41;99747.66;;;18.20;67.01
58662;BME280;44432;49.786;22.760;2022-07-09T06:42:16;99744.17;;;18.23;65.64
58662;BME280;44432;49.786;22.760;2022-07-09T06:44:47;99739.97;;;18.20;65.49
58662;BME280;44432;49.786;22.760;2022-07-09T06:47:18;99734.26;;;18.27;65.41
58662;BME280;44432;49.786;22.760;2022-07-09T06:49:49;99730.73;;;18.31;65.02
58662;BME280;44432;49.786;22.760;2022-07-09T06:52:19;99729.55;;;18.32;64.39
58662;BME280;44432;49.786;22.760;2022-07-09T06:54:50;99734.46;;;18.36;64.04
58662;BME280;44432;49.786;22.760;2022-07-09T06:57:20;99732.90;;;18.30;62.87
58662;BME280;44432;49.786;22.760;2022-07-09T06:59:51;99726.50;;;18.25;63.01
58662;BME280;44432;49.786;22.760;2022-07-09T07:02:22;99722.92;;;18.32;63.17
58662;BME280;44432;49.786;22.760;2022-07-09T07:04:52;99720.09;;;18.52;63.86
58662;BME280;44432;49.786;22.760;2022-07-09T07:07:23;99726.47;;;18.72;63.36
58662;BME280;44432;49.786;22.760;2022-07-09T07:09:54;99721.21;;;18.84;62.80
58662;BME280;44432;49.786;22.760;2022-07-09T07:12:24;99721.49;;;18.87;61.80
58662;BME280;44432;49.786;22.760;2022-07-09T07:14:55;99720.27;;;18.92;61.45
58662;BME280;44432;49.786;22.760;2022-07-09T07:17:25;99719.03;;;18.93;61.14
58662;BME280;44432;49.786;22.760;2022-07-09T07:19:56;99717.09;;;18.91;60.65
58662;BME280;44432;49.786;22.760;2022-07-09T07:22:27;99705.92;;;18.87;60.44
58662;BME280;44432;49.786;22.760;2022-07-09T07:24:57;99703.78;;;18.93;60.93
58662;BME280;44432;49.786;22.760;2022-07-09T07:27:28;99703.30;;;19.08;61.19
58662;BME280;44432;49.786;22.760;2022-07-09T07:29:58;99700.34;;;19.23;61.05
58662;BME280;44432;49.786;22.760;2022-07-09T07:32:29;99712.60;;;19.30;59.79
58662;BME280;44432;49.786;22.760;2022-07-09T07:34:59;99710.46;;;19.31;59.59
58662;BME280;44432;49.786;22.760;2022-07-09T07:37:31;99705.94;;;19.27;58.72
58662;BME280;44432;49.786;22.760;2022-07-09T07:40:02;99709.64;;;19.28;58.81
58662;BME280;44432;49.786;22.760;2022-07-09T07:42:33;99702.86;;;19.24;58.52
58662;BME280;44432;49.786;22.760;2022-07-09T07:45:05;99704.89;;;19.31;59.01
58662;BME280;44432;49.786;22.760;2022-07-09T07:47:35;99704.64;;;19.44;58.55
58662;BME280;44432;49.786;22.760;2022-07-09T07:50:08;99696.23;;;19.60;58.53
58662;BME280;44432;49.786;22.760;2022-07-09T07:52:38;99695.38;;;19.78;58.12
58662;BME280;44432;49.786;22.760;2022-07-09T07:55:09;99693.16;;;19.89;57.40
58662;BME280;44432;49.786;22.760;2022-07-09T07:57:40;99688.45;;;19.90;56.80
58662;BME280;44432;49.786;22.760;2022-07-09T08:00:12;99685.34;;;19.93;56.51
58662;BME280;44432;49.786;22.760;2022-07-09T08:02:43;99685.70;;;20.05;56.41
58662;BME280;44432;49.786;22.760;2022-07-09T08:05:14;99686.08;;;20.12;55.67
58662;BME280;44432;49.786;22.760;2022-07-09T08:07:44;99678.17;;;20.22;55.60
58662;BME280;44432;49.786;22.760;2022-07-09T08:10:15;99677.20;;;20.44;55.58
58662;BME280;44432;49.786;22.760;2022-07-09T08:12:45;99676.63;;;20.67;55.13
58662;BME280;44432;49.786;22.760;2022-07-09T08:15:16;99673.70;;;20.85;54.88
58662;BME280;44432;49.786;22.760;2022-07-09T08:17:47;99678.69;;;20.85;54.12
58662;BME280;44432;49.786;22.760;2022-07-09T08:20:17;99680.34;;;20.73;53.75
58662;BME280;44432;49.786;22.760;2022-07-09T08:22:49;99678.52;;;20.67;53.35
58662;BME280;44432;49.786;22.760;2022-07-09T08:25:19;99670.36;;;20.63;53.75
58662;BME280;44432;49.786;22.760;2022-07-09T08:27:50;99670.66;;;20.75;53.91
58662;BME280;44432;49.786;22.760;2022-07-09T08:30:20;99666.86;;;20.94;53.32
58662;BME280;44432;49.786;22.760;2022-07-09T08:32:51;99666.80;;;20.99;52.15
58662;BME280;44432;49.786;22.760;2022-07-09T08:35:22;99662.08;;;21.01;51.20
58662;BME280;44432;49.786;22.760;2022-07-09T08:37:53;99657.55;;;21.11;51.70
58662;BME280;44432;49.786;22.760;2022-07-09T08:40:26;99656.92;;;21.33;51.48
58662;BME280;44432;49.786;22.760;2022-07-09T08:42:57;99657.46;;;21.50;50.79
58662;BME280;44432;49.786;22.760;2022-07-09T08:45:29;99654.29;;;21.61;50.58
58662;BME280;44432;49.786;22.760;2022-07-09T08:48:01;99641.63;;;21.78;50.65
58662;BME280;44432;49.786;22.760;2022-07-09T08:50:36;99644.45;;;22.11;50.37
58662;BME280;44432;49.786;22.760;2022-07-09T08:53:07;99653.97;;;22.35;49.98
58662;BME280;44432;49.786;22.760;2022-07-09T08:55:38;99656.06;;;22.43;49.72
58662;BME280;44432;49.786;22.760;2022-07-09T08:58:09;99661.67;;;22.47;48.97
58662;BME280;44432;49.786;22.760;2022-07-09T09:00:42;99665.77;;;22.40;48.85
58662;BME280;44432;49.786;22.760;2022-07-09T09:03:12;99661.09;;;22.32;48.63
58662;BME280;44432;49.786;22.760;2022-07-09T09:05:43;99655.05;;;22.18;48.70
58662;BME280;44432;49.786;22.760;2022-07-09T09:08:21;99657.41;;;22.12;48.97
58662;BME280;44432;49.786;22.760;2022-07-09T09:10:52;99661.96;;;22.03;48.59
58662;BME280;44432;49.786;22.760;2022-07-09T09:13:23;99662.80;;;21.89;48.49
58662;BME280;44432;49.786;22.760;2022-07-09T09:16:05;99658.73;;;21.84;49.19
58662;BME280;44432;49.786;22.760;2022-07-09T09:18:39;99662.48;;;21.84;49.32
58662;BME280;44432;49.786;22.760;2022-07-09T09:21:11;99660.70;;;21.88;49.53
58662;BME280;44432;49.786;22.760;2022-07-09T09:23:43;99656.35;;;21.95;49.47
58662;BME280;44432;49.786;22.760;2022-07-09T09:26:13;99656.07;;;21.98;49.46
58662;BME280;44432;49.786;22.760;2022-07-09T09:28:54;99652.73;;;22.02;49.50
58662;BME280;44432;49.786;22.760;2022-07-09T09:31:25;99648.11;;;22.11;49.52
58662;BME280;44432;49.786;22.760;2022-07-09T09:33:58;99645.21;;;22.26;49.42
58662;BME280;44432;49.786;22.760;2022-07-09T09:36:41;99639.85;;;22.45;49.19
58662;BME280;44432;49.786;22.760;2022-07-09T09:39:11;99641.83;;;22.65;48.75
58662;BME280;44432;49.786;22.760;2022-07-09T09:41:44;99643.30;;;22.75;48.02
58662;BME280;44432;49.786;22.760;2022-07-09T09:44:14;99640.34;;;22.68;47.11
58662;BME280;44432;49.786;22.760;2022-07-09T09:46:46;99643.73;;;22.56;47.47
58662;BME280;44432;49.786;22.760;2022-07-09T09:49:17;99644.47;;;22.52;47.62
58662;BME280;44432;49.786;22.760;2022-07-09T09:52:00;99652.22;;;22.38;47.20
58662;BME280;44432;49.786;22.760;2022-07-09T09:54:34;99648.20;;;22.14;47.18
58662;BME280;44432;49.786;22.760;2022-07-09T09:57:07;99648.36;;;22.06;47.52
58662;BME280;44432;49.786;22.760;2022-07-09T09:59:41;99649.02;;;21.83;47.53
58662;BME280;44432;49.786;22.760;2022-07-09T10:02:12;99647.10;;;21.49;48.13
58662;BME280;44432;49.786;22.760;2022-07-09T10:04:44;99651.14;;;21.30;49.15
58662;BME280;44432;49.786;22.760;2022-07-09T10:07:15;99648.14;;;21.21;49.75
58662;BME280;44432;49.786;22.760;2022-07-09T10:09:55;99647.80;;;21.18;49.76
58662;BME280;44432;49.786;22.760;2022-07-09T10:12:32;99642.63;;;21.09;49.75
58662;BME280;44432;49.786;22.760;2022-07-09T10:15:03;99645.70;;;21.03;49.85
58662;BME280;44432;49.786;22.760;2022-07-09T10:17:41;99644.59;;;20.96;49.80
58662;BME280;44432;49.786;22.760;2022-07-09T10:20:12;99638.26;;;20.93;49.86
58662;BME280;44432;49.786;22.760;2022-07-09T10:22:44;99637.50;;;20.93;49.71
58662;BME280;44432;49.786;22.760;2022-07-09T10:25:27;99634.88;;;20.96;49.55
58662;BME280;44432;49.786;22.760;2022-07-09T10:27:59;99631.80;;;21.02;49.46
58662;BME280;44432;49.786;22.760;2022-07-09T10:30:30;99626.89;;;21.10;49.67
58662;BME280;44432;49.786;22.760;2022-07-09T10:33:06;99624.56;;;21.21;49.50
58662;BME280;44432;49.786;22.760;2022-07-09T10:35:44;99621.25;;;21.35;49.25
58662;BME280;44432;49.786;22.760;2022-07-09T10:38:16;99623.05;;;21.53;48.52
58662;BME280;44432;49.786;22.760;2022-07-09T10:40:55;99621.55;;;21.65;48.12
58662;BME280;44432;49.786;22.760;2022-07-09T10:43:40;99617.86;;;21.79;47.94
58662;BME280;44432;49.786;22.760;2022-07-09T10:46:15;99614.20;;;21.94;47.84
58662;BME280;44432;49.786;22.760;2022-07-09T10:48:46;99617.30;;;22.09;47.69
58662;BME280;44432;49.786;22.760;2022-07-09T10:51:21;99618.07;;;22.30;47.26
58662;BME280;44432;49.786;22.760;2022-07-09T10:53:52;99612.55;;;22.46;46.65
58662;BME280;44432;49.786;22.760;2022-07-09T10:56:23;99612.46;;;22.63;46.50
58662;BME280;44432;49.786;22.760;2022-07-09T10:58:53;99612.13;;;22.74;45.48
58662;BME280;44432;49.786;22.760;2022-07-09T11:01:25;99605.23;;;22.70;45.16
58662;BME280;44432;49.786;22.760;2022-07-09T11:03:56;99599.39;;;22.80;45.64
58662;BME280;44432;49.786;22.760;2022-07-09T11:06:27;99600.19;;;23.00;45.65
58662;BME280;44432;49.786;22.760;2022-07-09T11:08:59;99595.40;;;23.14;45.17
58662;BME280;44432;49.786;22.760;2022-07-09T11:11:30;99590.00;;;23.33;44.61
58662;BME280;44432;49.786;22.760;2022-07-09T11:14:01;99587.60;;;23.47;44.20
58662;BME280;44432;49.786;22.760;2022-07-09T11:16:31;99582.00;;;23.52;44.08
58662;BME280;44432;49.786;22.760;2022-07-09T11:19:13;99581.92;;;23.63;44.60
58662;BME280;44432;49.786;22.760;2022-07-09T11:21:45;99575.48;;;23.87;44.87
58662;BME280;44432;49.786;22.760;2022-07-09T11:24:17;99569.13;;;24.05;44.72
58662;BME280;44432;49.786;22.760;2022-07-09T11:26:48;99562.70;;;24.16;44.40
58662;BME280;44432;49.786;22.760;2022-07-09T11:29:19;99563.02;;;24.34;44.54
58662;BME280;44432;49.786;22.760;2022-07-09T11:31:51;99557.17;;;24.55;44.20
58662;BME280;44432;49.786;22.760;2022-07-09T11:34:22;99557.50;;;24.60;43.48
58662;BME280;44432;49.786;22.760;2022-07-09T11:36:54;99554.97;;;24.68;43.21
58662;BME280;44432;49.786;22.760;2022-07-09T11:39:26;99547.09;;;24.68;43.05
58662;BME280;44432;49.786;22.760;2022-07-09T11:41:58;99541.84;;;24.91;43.57
58662;BME280;44432;49.786;22.760;2022-07-09T11:44:31;99537.14;;;25.25;43.10
58662;BME280;44432;49.786;22.760;2022-07-09T11:47:07;99534.06;;;25.45;42.29
58662;BME280;44432;49.786;22.760;2022-07-09T11:49:39;99529.98;;;25.58;42.23
58662;BME280;44432;49.786;22.760;2022-07-09T11:52:19;99525.13;;;25.78;41.41
58662;BME280;44432;49.786;22.760;2022-07-09T11:54:58;99520.84;;;26.00;41.02
58662;BME280;44432;49.786;22.760;2022-07-09T11:57:29;99527.48;;;25.92;39.80
58662;BME280;44432;49.786;22.760;2022-07-09T12:00:01;99523.83;;;25.80;39.54
58662;BME280;44432;49.786;22.760;2022-07-09T12:02:33;99525.23;;;25.78;38.96
58662;BME280;44432;49.786;22.760;2022-07-09T12:05:03;99521.28;;;25.65;38.27
58662;BME280;44432;49.786;22.760;2022-07-09T12:07:34;99520.38;;;25.26;37.88
58662;BME280;44432;49.786;22.760;2022-07-09T12:10:07;99519.87;;;24.87;38.55
58662;BME280;44432;49.786;22.760;2022-07-09T12:12:38;99520.08;;;24.72;38.66
58662;BME280;44432;49.786;22.760;2022-07-09T12:15:09;99517.78;;;24.56;38.87
58662;BME280;44432;49.786;22.760;2022-07-09T12:17:41;99516.91;;;24.32;39.34
58662;BME280;44432;49.786;22.760;2022-07-09T12:20:12;99508.55;;;24.18;39.50
58662;BME280;44432;49.786;22.760;2022-07-09T12:22:42;99507.11;;;24.11;39.66
58662;BME280;44432;49.786;22.760;2022-07-09T12:25:13;99509.78;;;24.06;40.25
58662;BME280;44432;49.786;22.760;2022-07-09T12:27:44;99503.08;;;24.07;40.17
58662;BME280;44432;49.786;22.760;2022-07-09T12:30:15;99506.94;;;23.93;39.87
58662;BME280;44432;49.786;22.760;2022-07-09T12:32:46;99503.52;;;23.74;40.25
58662;BME280;44432;49.786;22.760;2022-07-09T12:35:17;99499.63;;;23.75;40.69
58662;BME280;44432;49.786;22.760;2022-07-09T12:37:47;99495.21;;;23.61;40.20
58662;BME280;44432;49.786;22.760;2022-07-09T12:40:18;99496.10;;;23.43;40.88
58662;BME280;44432;49.786;22.760;2022-07-09T12:42:48;99492.64;;;23.52;41.06
58662;BME280;44432;49.786;22.760;2022-07-09T12:45:19;99492.64;;;23.68;40.81
58662;BME280;44432;49.786;22.760;2022-07-09T12:47:50;99492.95;;;23.60;40.27
58662;BME280;44432;49.786;22.760;2022-07-09T12:50:21;99484.52;;;23.62;40.96
58662;BME280;44432;49.786;22.760;2022-07-09T12:52:52;99480.85;;;23.86;40.88
58662;BME280;44432;49.786;22.760;2022-07-09T12:55:22;99476.72;;;24.09;40.69
58662;BME280;44432;49.786;22.760;2022-07-09T12:57:53;99471.02;;;24.25;40.43
58662;BME280;44432;49.786;22.760;2022-07-09T13:00:24;99468.14;;;24.22;39.91
58662;BME280;44432;49.786;22.760;2022-07-09T13:02:54;99466.84;;;24.18;40.25
58662;BME280;44432;49.786;22.760;2022-07-09T13:05:24;99467.08;;;24.09;40.22
58662;BME280;44432;49.786;22.760;2022-07-09T13:07:55;99464.78;;;23.95;40.66
58662;BME280;44432;49.786;22.760;2022-07-09T13:10:26;99474.69;;;23.81;40.92
58662;BME280;44432;49.786;22.760;2022-07-09T13:12:56;99478.02;;;23.53;40.96